Hunter M — WDE8140 — position and weather

sailwx.info

Track history (hours):
 
Tides and Currents Weather Stations Pressure Air Temp Water Temp Dewpoint Dewpoint Depression Visibility Wind Speed Wind Dir Waves Ship Positions

Hunter M

Owner: G & H Towing Company, Galveston, TX. More information available from US FCC via Universal Licensing System and Coast Guard Vessel Documentation Center.

Last reported at 2017-Oct-17 23:55 UTC. Time now 2017-Oct-18 00:19 UTC.
Position N 29°42' W 095°01'.

Length 30 m; draft 6.2 m.

Type: Tug. MMSI: 367402050.

Date/timePositionNaut miles runAvg speedWind from/ knotsBaromVisibWave heightAir tempDewpointWater temp
2017-Oct-17 23:55N 29°42' W 095°01'1 0.6
2017-Oct-17 22:39N 29°43' W 095°01'1 6.2
2017-Oct-17 22:31N 29°42' W 095°01'0 0.3
2017-Oct-17 21:48N 29°42' W 095°01'0 0.0
2017-Oct-17 19:33N 29°42' W 095°01'0 0.0
2017-Oct-17 19:27N 29°42' W 095°01'0 0.0
2017-Oct-17 18:57N 29°42' W 095°01'0 0.0
2017-Oct-17 18:21N 29°42' W 095°01'0 0.0
2017-Oct-17 17:54N 29°42' W 095°01'0 0.0
2017-Oct-17 17:27N 29°42' W 095°01'0 0.0
2017-Oct-17 16:51N 29°42' W 095°01'0 0.0
2017-Oct-17 16:27N 29°42' W 095°01'0 0.0
2017-Oct-17 15:15N 29°42' W 095°01'0 0.0
2017-Oct-17 14:18N 29°42' W 095°01'0 0.0
2017-Oct-17 14:00N 29°42' W 095°01'0 0.0
2017-Oct-17 13:30N 29°42' W 095°01'4 7.9
2017-Oct-17 13:00N 29°39' W 094°58'3 6.1
2017-Oct-17 12:30N 29°37' W 095°00'0 0.0
2017-Oct-17 11:58N 29°37' W 095°00'0 0.0
2017-Oct-17 11:28N 29°37' W 095°00'0 0.0
2017-Oct-17 10:58N 29°37' W 095°00'0 0.0
2017-Oct-17 10:28N 29°37' W 095°00'0 0.0
2017-Oct-17 09:58N 29°37' W 095°00'0 0.0
2017-Oct-17 09:28N 29°37' W 095°00'0 0.0
2017-Oct-17 08:58N 29°37' W 095°00'0 0.0
2017-Oct-17 08:28N 29°37' W 095°00'0 0.0
2017-Oct-17 07:58N 29°37' W 095°00'0 0.0
2017-Oct-17 07:28N 29°37' W 095°00'0 0.0
2017-Oct-17 06:58N 29°37' W 095°00'0 0.0
2017-Oct-17 06:28N 29°37' W 095°00'0 0.0
2017-Oct-17 05:58N 29°37' W 095°00'0 0.0
2017-Oct-17 05:28N 29°37' W 095°00'0 0.0
2017-Oct-17 04:58N 29°37' W 095°00'0 0.0
2017-Oct-17 04:29N 29°37' W 095°00'2 4.2
2017-Oct-17 04:00N 29°37' W 094°58'2 4.8
2017-Oct-17 03:30N 29°37' W 095°01'0 0.5
2017-Oct-17 03:00N 29°37' W 095°00'0 0.0
2017-Oct-17 02:30N 29°37' W 095°00'1 2.5
2017-Oct-17 02:00N 29°37' W 094°59'4 5.4
2017-Oct-17 01:14N 29°41' W 094°60'0 0.2
2017-Oct-17 00:58N 29°41' W 094°60'2 3.2
2017-Oct-17 00:26N 29°42' W 095°01'0 0.0
2017-Oct-16 23:49N 29°42' W 095°01'5 1.5
2017-Oct-16 20:26N 29°46' W 095°05'4 8.2
2017-Oct-16 19:56N 29°44' W 095°01'0 0.2
2017-Oct-16 19:08N 29°44' W 095°01'1 2.5
2017-Oct-16 18:49N 29°43' W 095°01'1 2.0
2017-Oct-16 18:30N 29°42' W 095°01'0 0.0
2017-Oct-16 17:43N 29°42' W 095°01'0 1.1
2017-Oct-16 17:31N 29°42' W 095°01'2 3.2
2017-Oct-16 17:00N 29°41' W 094°60'0 0.3
2017-Oct-16 16:30N 29°41' W 094°60'2 4.8
2017-Oct-16 16:00N 29°39' W 094°58'2 4.4
2017-Oct-16 15:28N 29°37' W 094°59'1 1.9
2017-Oct-16 15:00N 29°37' W 095°00'2 4.4
2017-Oct-16 14:30N 29°37' W 094°58'2 2.4
2017-Oct-16 13:30N 29°37' W 095°00'1 2.9
2017-Oct-16 13:00N 29°37' W 094°59'4 7.5
2017-Oct-16 12:30N 29°41' W 094°59'1 1.3
2017-Oct-16 12:00N 29°41' W 094°59'1 2.0
2017-Oct-16 11:30N 29°42' W 094°60'6 6.0
2017-Oct-16 10:29N 29°45' W 095°06'4 8.0
2017-Oct-16 09:58N 29°44' W 095°01'4 9.5
2017-Oct-16 09:30N 29°40' W 094°58'3 6.7
2017-Oct-16 09:00N 29°37' W 094°60'1 1.2
2017-Oct-16 08:30N 29°37' W 095°01'0 0.3
2017-Oct-16 08:00N 29°37' W 095°00'3 5.2
2017-Oct-16 07:31N 29°37' W 094°57'3 5.4
2017-Oct-16 07:00N 29°40' W 094°58'1 2.5
2017-Oct-16 06:30N 29°41' W 094°59'1 2.0
2017-Oct-16 06:00N 29°41' W 095°00'1 1.0
2017-Oct-16 05:29N 29°41' W 094°59'0 0.0
2017-Oct-16 01:03N 29°41' W 094°59'0 0.0
2017-Oct-16 00:53N 29°41' W 094°59'0 1.2
2017-Oct-16 00:30N 29°41' W 094°60'0 0.7
2017-Oct-16 00:00N 29°41' W 095°00'1 2.1
2017-Oct-15 23:29N 29°41' W 094°59'0 0.0
2017-Oct-15 22:59N 29°41' W 094°59'0 0.0
2017-Oct-15 22:29N 29°41' W 094°59'0 0.0
2017-Oct-15 21:59N 29°41' W 094°59'0 0.0
2017-Oct-15 21:22N 29°41' W 094°59'4 7.3
2017-Oct-15 20:48N 29°44' W 095°03'0 1.5
2017-Oct-15 20:30N 29°44' W 095°03'2 3.0
2017-Oct-15 19:48N 29°43' W 095°01'3 9.0
2017-Oct-15 19:30N 29°41' W 094°59'1 2.7
2017-Oct-15 19:00N 29°41' W 095°00'0 0.1
2017-Oct-15 18:29N 29°41' W 095°01'1 0.6
2017-Oct-15 17:26N 29°41' W 094°60'0 0.0
2017-Oct-15 16:29N 29°41' W 094°60'0 0.0
2017-Oct-15 15:50N 29°41' W 094°60'0 0.0
2017-Oct-15 15:14N 29°41' W 094°60'0 0.0
2017-Oct-15 14:56N 29°41' W 094°60'0 0.0
2017-Oct-15 13:56N 29°41' W 094°60'0 0.0
2017-Oct-15 13:20N 29°41' W 094°60'0 0.0
2017-Oct-15 12:50N 29°41' W 094°60'0 0.0
2017-Oct-15 11:53N 29°41' W 094°60'0 0.0
2017-Oct-15 11:23N 29°41' W 094°60'0 0.0
2017-Oct-15 10:44N 29°41' W 094°60'0 0.5
2017-Oct-15 10:27N 29°41' W 094°60'0 0.3
2017-Oct-15 10:00N 29°41' W 094°60'2 3.9
2017-Oct-15 09:30N 29°39' W 094°58'2 3.2
2017-Oct-15 08:56N 29°41' W 094°59'1 2.2
2017-Oct-15 08:30N 29°41' W 095°01'0 0.0
2017-Oct-15 08:00N 29°41' W 095°01'1 1.2
2017-Oct-15 07:30N 29°41' W 094°60'2 3.2
2017-Oct-15 07:00N 29°40' W 094°59'2 0.5
2017-Oct-15 03:56N 29°41' W 094°60'0 0.9
2017-Oct-15 03:24N 29°41' W 095°00'1 2.6
2017-Oct-15 03:00N 29°41' W 094°59'1 1.9
2017-Oct-15 02:30N 29°40' W 094°59'2 4.1
2017-Oct-15 02:00N 29°42' W 094°60'6 0.8
2017-Oct-14 18:20N 29°45' W 095°06'2 6.0
2017-Oct-14 17:57N 29°44' W 095°03'3 2.3
2017-Oct-14 16:39N 29°42' W 095°01'1 0.4
2017-Oct-14 15:10N 29°43' W 095°01'1 0.4
2017-Oct-14 13:34N 29°42' W 095°01'1 8.2
2017-Oct-14 13:30N 29°42' W 095°01'1 2.7
2017-Oct-14 13:00N 29°41' W 094°60'0 0.1
2017-Oct-14 12:30N 29°41' W 094°60'3 6.7
2017-Oct-14 12:00N 29°44' W 095°02'1 2.4
2017-Oct-14 11:30N 29°44' W 095°03'2 4.7
2017-Oct-14 11:00N 29°42' W 095°01'0 0.2
2017-Oct-14 10:30N 29°42' W 095°01'1 0.3
2017-Oct-14 08:08N 29°43' W 095°01'110.0
2017-Oct-14 08:01N 29°42' W 095°00'1 2.2
2017-Oct-14 07:30N 29°41' W 094°60'0 0.0
2017-Oct-14 07:00N 29°41' W 094°60'0 0.0
2017-Oct-14 06:27N 29°41' W 094°60'0 0.0
2017-Oct-14 05:57N 29°41' W 094°60'0 0.0
2017-Oct-14 05:30N 29°41' W 094°60'0 0.0
2017-Oct-14 04:48N 29°41' W 094°60'0 0.0
2017-Oct-14 04:27N 29°41' W 094°60'1 1.3
2017-Oct-14 04:00N 29°41' W 095°00'0 0.2
2017-Oct-14 03:30N 29°41' W 095°01'1 1.6
2017-Oct-14 03:00N 29°41' W 094°60'1 1.3
2017-Oct-14 02:31N 29°41' W 095°00'0 0.3
2017-Oct-14 02:00N 29°41' W 095°01'0 0.1
2017-Oct-14 01:20N 29°41' W 095°00'1 4.0
2017-Oct-14 01:00N 29°41' W 094°59'1 1.0
2017-Oct-14 00:12N 29°41' W 094°60'0 0.0
2017-Oct-13 23:12N 29°41' W 094°60'1 4.1
2017-Oct-13 23:00N 29°41' W 094°59'4 7.7
2017-Oct-13 22:28N 29°37' W 094°59'2 3.7
2017-Oct-13 21:52N 29°37' W 095°01'1 1.8
2017-Oct-13 21:30N 29°37' W 095°01'0 0.9
2017-Oct-13 21:00N 29°37' W 095°00'3 5.3
2017-Oct-13 20:30N 29°38' W 094°58'3 4.9
2017-Oct-13 19:57N 29°41' W 094°59'0 0.0
2017-Oct-13 19:27N 29°41' W 094°59'0 0.0
2017-Oct-13 18:59N 29°41' W 094°59'0 0.0
2017-Oct-13 18:21N 29°41' W 094°59'0 0.0
2017-Oct-13 18:00N 29°41' W 094°59'0 0.0
2017-Oct-13 17:27N 29°41' W 094°59'0 0.0
2017-Oct-13 17:00N 29°41' W 094°59'0 0.0
2017-Oct-13 16:27N 29°41' W 094°59'0 0.0
2017-Oct-13 16:00N 29°41' W 094°59'2 3.1
2017-Oct-13 15:23N 29°42' W 095°01'5 2.1
2017-Oct-13 12:58N 29°45' W 095°06'4 7.3
2017-Oct-13 12:25N 29°44' W 095°01'3 7.5
2017-Oct-13 12:00N 29°41' W 094°59'1 1.0
2017-Oct-13 11:29N 29°41' W 094°60'0 0.0
2017-Oct-13 10:50N 29°41' W 094°60'0 0.0
2017-Oct-13 10:31N 29°41' W 094°60'0 0.1
2017-Oct-13 09:57N 29°41' W 094°60'1 1.8
2017-Oct-13 09:31N 29°41' W 094°59'2 4.5
2017-Oct-13 08:58N 29°42' W 095°01'0 0.4
2017-Oct-13 08:29N 29°42' W 095°01'0 0.0
2017-Oct-13 07:56N 29°42' W 095°01'0 0.0
2017-Oct-13 07:29N 29°42' W 095°01'0 0.0
2017-Oct-13 06:59N 29°42' W 095°01'0 0.0
2017-Oct-13 06:29N 29°42' W 095°01'0 0.0
2017-Oct-13 05:59N 29°42' W 095°01'0 0.0
2017-Oct-13 05:29N 29°42' W 095°01'0 0.0
2017-Oct-13 04:59N 29°42' W 095°01'0 0.0
2017-Oct-13 03:56N 29°42' W 095°01'0 0.0
2017-Oct-13 03:26N 29°42' W 095°01'0 0.0
2017-Oct-13 02:59N 29°42' W 095°01'2 4.9
2017-Oct-13 02:29N 29°44' W 095°03'0 0.0
2017-Oct-13 02:00N 29°44' W 095°03'3 0.4
2017-Oct-12 18:45N 29°45' W 095°06'1 4.7
2017-Oct-12 18:26N 29°45' W 095°04'3 5.9
2017-Oct-12 17:59N 29°44' W 095°01'3 6.0
2017-Oct-12 17:30N 29°41' W 094°59'0 0.2
2017-Oct-12 17:00N 29°41' W 094°59'2 1.4
2017-Oct-12 15:34N 29°42' W 095°01'0 0.0
2017-Oct-12 15:22N 29°42' W 095°01'0 0.0
2017-Oct-12 13:22N 29°42' W 095°01'0 0.0
2017-Oct-12 13:00N 29°42' W 095°01'510.1
2017-Oct-12 12:30N 29°38' W 094°58'2 4.6
2017-Oct-12 12:00N 29°37' W 094°60'0 0.4
2017-Oct-12 11:30N 29°37' W 095°00'0 0.3
2017-Oct-12 11:00N 29°37' W 095°00'4 6.6
2017-Oct-12 10:24N 29°41' W 094°59'1 1.9
2017-Oct-12 09:56N 29°41' W 094°60'0 0.0
2017-Oct-12 07:53N 29°41' W 094°60'0 0.0
2017-Oct-12 03:41N 29°41' W 094°60'0 0.0
2017-Oct-12 03:22N 29°41' W 094°60'1 1.4
2017-Oct-12 03:00N 29°41' W 094°59'1 1.7
2017-Oct-12 02:26N 29°41' W 095°00'2 4.0
2017-Oct-12 02:00N 29°40' W 094°58'3 6.3
2017-Oct-12 01:28N 29°37' W 094°60'1 2.1
2017-Oct-12 00:58N 29°37' W 095°01'0 0.0
2017-Oct-12 00:28N 29°37' W 095°01'0 0.0
2017-Oct-11 23:58N 29°37' W 095°01'0 0.0
2017-Oct-11 23:28N 29°37' W 095°01'0 0.0
2017-Oct-11 22:58N 29°37' W 095°01'0 0.9
2017-Oct-11 22:30N 29°37' W 095°01'1 2.0
2017-Oct-11 22:01N 29°37' W 095°00'1 2.0
2017-Oct-11 21:30N 29°37' W 095°02'0 0.1
2017-Oct-11 20:58N 29°37' W 095°02'0 0.0
2017-Oct-11 20:28N 29°37' W 095°02'0 0.0
2017-Oct-11 19:55N 29°37' W 095°02'0 0.0
2017-Oct-11 19:28N 29°37' W 095°02'0 0.0
2017-Oct-11 18:58N 29°37' W 095°02'0 0.0
2017-Oct-11 18:28N 29°37' W 095°02'0 0.0
2017-Oct-11 17:49N 29°37' W 095°02'0 0.0
2017-Oct-11 17:28N 29°37' W 095°02'0 0.0
2017-Oct-11 16:55N 29°37' W 095°02'5 0.3
2017-Oct-11 00:00N 29°41' W 094°59'5 8.8
2017-Oct-10 23:29N 29°36' W 094°57'2 5.3
2017-Oct-10 23:00N 29°37' W 095°00'1 1.8
2017-Oct-10 22:30N 29°37' W 095°01'0 0.9
2017-Oct-10 22:00N 29°37' W 095°02'0 0.0
2017-Oct-10 21:30N 29°37' W 095°02'0 0.0
2017-Oct-10 21:00N 29°37' W 095°02'0 0.0
2017-Oct-10 20:30N 29°37' W 095°02'0 0.0
2017-Oct-10 20:00N 29°37' W 095°02'0 0.0
2017-Oct-10 19:30N 29°37' W 095°02'0 0.5
2017-Oct-10 19:00N 29°37' W 095°01'0 0.1
2017-Oct-10 18:30N 29°37' W 095°01'1 2.4
2017-Oct-10 18:01N 29°37' W 094°60'0 0.9
2017-Oct-10 17:30N 29°37' W 094°59'4 7.0
2017-Oct-10 17:00N 29°40' W 094°59'3 4.5
2017-Oct-10 16:22N 29°42' W 095°01'0 0.0
2017-Oct-10 15:58N 29°42' W 095°01'0 0.0
2017-Oct-10 15:28N 29°42' W 095°01'0 0.0
2017-Oct-10 14:58N 29°42' W 095°01'0 0.0
2017-Oct-10 13:49N 29°42' W 095°01'0 0.0
2017-Oct-10 13:28N 29°42' W 095°01'0 0.0
2017-Oct-10 12:58N 29°42' W 095°01'2 3.8
2017-Oct-10 12:30N 29°42' W 094°59'1 0.4
2017-Oct-10 11:04N 29°41' W 094°60'0 0.0
2017-Oct-10 10:49N 29°41' W 094°60'0 0.0
2017-Oct-10 10:22N 29°41' W 094°60'0 0.0
2017-Oct-10 09:49N 29°41' W 094°60'0 1.3
2017-Oct-10 09:31N 29°41' W 094°59'1 1.0
2017-Oct-10 08:43N 29°41' W 095°00'0 1.4
2017-Oct-10 08:29N 29°41' W 094°60'0 0.0
2017-Oct-10 08:00N 29°41' W 094°60'0 0.0
2017-Oct-10 07:30N 29°41' W 094°60'0 0.0
2017-Oct-10 07:00N 29°41' W 094°60'0 0.0
2017-Oct-10 06:30N 29°41' W 094°60'0 0.0
2017-Oct-10 05:21N 29°41' W 094°60'0 0.0
2017-Oct-10 05:00N 29°41' W 094°60'0 0.0
2017-Oct-10 04:30N 29°41' W 094°60'1 1.1
2017-Oct-10 03:56N 29°41' W 095°00'1 3.2
2017-Oct-10 03:30N 29°42' W 095°01'0 0.5
2017-Oct-10 02:59N 29°42' W 095°01'0 0.0
2017-Oct-10 02:29N 29°42' W 095°01'0 0.0
2017-Oct-10 01:59N 29°42' W 095°01'0 0.0
2017-Oct-10 01:29N 29°42' W 095°01'0 0.0
2017-Oct-10 00:50N 29°42' W 095°01'0 0.0
2017-Oct-10 00:29N 29°42' W 095°01'0 0.0
2017-Oct-09 23:59N 29°42' W 095°01'0 0.0
2017-Oct-09 23:29N 29°42' W 095°01'0 0.0
2017-Oct-09 22:59N 29°42' W 095°01'1 2.8
2017-Oct-09 22:27N 29°44' W 095°01'0 0.0
2017-Oct-09 21:58N 29°44' W 095°01'0 0.3
2017-Oct-09 21:29N 29°44' W 095°01'1 2.9
2017-Oct-09 20:59N 29°42' W 095°01'0 0.3
2017-Oct-09 20:26N 29°42' W 095°01'0 0.0
2017-Oct-09 19:47N 29°42' W 095°01'0 0.0
2017-Oct-09 19:26N 29°42' W 095°01'0 0.0
2017-Oct-09 18:59N 29°42' W 095°01'0 0.0
2017-Oct-09 18:29N 29°42' W 095°01'0 0.0
2017-Oct-09 17:59N 29°42' W 095°01'0 0.0
2017-Oct-09 17:29N 29°42' W 095°01'0 0.0
2017-Oct-09 16:59N 29°42' W 095°01'2 4.0
2017-Oct-09 16:31N 29°41' W 094°59'0 0.7
2017-Oct-09 16:00N 29°41' W 094°59'3 5.5
2017-Oct-09 15:31N 29°39' W 094°58'2 4.9
2017-Oct-09 15:00N 29°37' W 095°00'0 0.5
2017-Oct-09 14:18N 29°37' W 095°00'0 0.0
2017-Oct-09 14:00N 29°37' W 095°00'0 0.0
2017-Oct-09 13:30N 29°37' W 095°00'0 0.0
2017-Oct-09 12:54N 29°37' W 095°00'0 0.0
2017-Oct-09 12:27N 29°37' W 095°00'0 0.2
2017-Oct-09 12:00N 29°37' W 095°00'0 0.5
2017-Oct-09 11:30N 29°37' W 095°01'0 0.2
2017-Oct-09 11:00N 29°37' W 095°01'3 6.9
2017-Oct-09 10:30N 29°36' W 094°57'3 6.6
2017-Oct-09 09:59N 29°37' W 095°01'0 0.0
2017-Oct-09 09:29N 29°37' W 095°01'0 0.0
2017-Oct-09 08:59N 29°37' W 095°01'0 0.0
2017-Oct-09 08:29N 29°37' W 095°01'1 1.4
2017-Oct-09 08:01N 29°37' W 095°01'0 0.1
2017-Oct-09 07:30N 29°37' W 095°01'0 0.0
2017-Oct-09 07:00N 29°37' W 095°01'0 0.6
2017-Oct-09 06:30N 29°37' W 095°02'0 0.3
2017-Oct-09 06:01N 29°37' W 095°01'0 0.2
2017-Oct-09 05:30N 29°37' W 095°01'0 0.7
2017-Oct-09 05:00N 29°36' W 095°01'1 1.1
2017-Oct-09 04:30N 29°37' W 095°02'0 0.0
2017-Oct-09 04:00N 29°37' W 095°02'0 0.0
2017-Oct-09 03:30N 29°37' W 095°02'0 0.0
2017-Oct-09 02:57N 29°37' W 095°02'0 0.0
2017-Oct-09 02:30N 29°37' W 095°02'0 0.0
2017-Oct-09 02:00N 29°37' W 095°02'0 0.0
2017-Oct-09 01:30N 29°37' W 095°02'0 0.0
2017-Oct-09 01:00N 29°37' W 095°02'0 0.6
2017-Oct-09 00:30N 29°37' W 095°01'0 0.7
2017-Oct-09 00:00N 29°37' W 095°01'0 0.0
2017-Oct-08 23:29N 29°37' W 095°01'0 0.0
2017-Oct-08 22:59N 29°37' W 095°01'0 0.0
2017-Oct-08 22:29N 29°37' W 095°01'0 0.0
2017-Oct-08 21:59N 29°37' W 095°01'0 0.0
2017-Oct-08 21:29N 29°37' W 095°01'0 0.0
2017-Oct-08 20:59N 29°37' W 095°01'0 0.0
2017-Oct-08 20:29N 29°37' W 095°01'0 0.0
2017-Oct-08 19:59N 29°37' W 095°01'0 0.0
2017-Oct-08 19:29N 29°37' W 095°01'0 0.0
2017-Oct-08 18:59N 29°37' W 095°01'0 0.0
2017-Oct-08 18:29N 29°37' W 095°01'0 0.0
2017-Oct-08 17:59N 29°37' W 095°01'0 0.0
2017-Oct-08 17:29N 29°37' W 095°01'0 0.0
2017-Oct-08 16:59N 29°37' W 095°01'0 0.0
2017-Oct-08 16:29N 29°37' W 095°01'0 0.0
2017-Oct-08 15:59N 29°37' W 095°01'0 0.0
2017-Oct-08 15:29N 29°37' W 095°01'0 0.0
2017-Oct-08 14:59N 29°37' W 095°01'0 0.7
2017-Oct-08 14:15N 29°37' W 095°01'0 0.0
2017-Oct-08 13:57N 29°37' W 095°01'0 0.0
2017-Oct-08 13:27N 29°37' W 095°01'0 0.0
2017-Oct-08 12:57N 29°37' W 095°01'0 0.0
2017-Oct-08 12:27N 29°37' W 095°01'1 2.2
2017-Oct-08 12:00N 29°37' W 094°59'0 0.7
2017-Oct-08 11:31N 29°37' W 094°60'0 0.7
2017-Oct-08 11:00N 29°37' W 095°00'0 0.6
2017-Oct-08 10:29N 29°37' W 095°01'0 0.0
2017-Oct-08 09:59N 29°37' W 095°01'0 0.0
2017-Oct-08 09:29N 29°37' W 095°01'0 0.0
2017-Oct-08 08:59N 29°37' W 095°01'0 0.0
2017-Oct-08 08:29N 29°37' W 095°01'0 0.0
2017-Oct-08 07:59N 29°37' W 095°01'0 0.0
2017-Oct-08 07:29N 29°37' W 095°01'0 0.0
2017-Oct-08 06:59N 29°37' W 095°01'0 0.0
2017-Oct-08 06:29N 29°37' W 095°01'0 0.0
2017-Oct-08 05:59N 29°37' W 095°01'0 0.0
2017-Oct-08 05:29N 29°37' W 095°01'0 0.0
2017-Oct-08 04:59N 29°37' W 095°01'0 0.0
2017-Oct-08 04:29N 29°37' W 095°01'0 0.0
2017-Oct-08 04:00N 29°37' W 095°01'4 8.0
2017-Oct-08 03:30N 29°35' W 094°56'510.6
2017-Oct-08 03:00N 29°31' W 094°53'  
Track history (hours):
 
Tides and Currents Weather Stations Pressure Air Temp Water Temp Dewpoint Dewpoint Depression Visibility Wind Speed Wind Dir Waves Ship Positions

Hunter M

Owner: G & H Towing Company, Galveston, TX. More information available from US FCC via Universal Licensing System and Coast Guard Vessel Documentation Center.

Last reported at 2017-Oct-17 23:55 UTC. Time now 2017-Oct-18 00:19 UTC.
Position N 29°42' W 095°01'.

Length 30 m; draft 6.2 m.

Type: Tug. MMSI: 367402050.

Date/timePositionNaut miles runAvg speedWind from/ knotsBaromVisibWave heightAir tempDewpointWater temp
2017-Oct-17 23:55N 29°42' W 095°01'1 0.6
2017-Oct-17 22:39N 29°43' W 095°01'1 6.2
2017-Oct-17 22:31N 29°42' W 095°01'0 0.3
2017-Oct-17 21:48N 29°42' W 095°01'0 0.0
2017-Oct-17 19:33N 29°42' W 095°01'0 0.0
2017-Oct-17 19:27N 29°42' W 095°01'0 0.0
2017-Oct-17 18:57N 29°42' W 095°01'0 0.0
2017-Oct-17 18:21N 29°42' W 095°01'0 0.0
2017-Oct-17 17:54N 29°42' W 095°01'0 0.0
2017-Oct-17 17:27N 29°42' W 095°01'0 0.0
2017-Oct-17 16:51N 29°42' W 095°01'0 0.0
2017-Oct-17 16:27N 29°42' W 095°01'0 0.0
2017-Oct-17 15:15N 29°42' W 095°01'0 0.0
2017-Oct-17 14:18N 29°42' W 095°01'0 0.0
2017-Oct-17 14:00N 29°42' W 095°01'0 0.0
2017-Oct-17 13:30N 29°42' W 095°01'4 7.9
2017-Oct-17 13:00N 29°39' W 094°58'3 6.1
2017-Oct-17 12:30N 29°37' W 095°00'0 0.0
2017-Oct-17 11:58N 29°37' W 095°00'0 0.0
2017-Oct-17 11:28N 29°37' W 095°00'0 0.0
2017-Oct-17 10:58N 29°37' W 095°00'0 0.0
2017-Oct-17 10:28N 29°37' W 095°00'0 0.0
2017-Oct-17 09:58N 29°37' W 095°00'0 0.0
2017-Oct-17 09:28N 29°37' W 095°00'0 0.0
2017-Oct-17 08:58N 29°37' W 095°00'0 0.0
2017-Oct-17 08:28N 29°37' W 095°00'0 0.0
2017-Oct-17 07:58N 29°37' W 095°00'0 0.0
2017-Oct-17 07:28N 29°37' W 095°00'0 0.0
2017-Oct-17 06:58N 29°37' W 095°00'0 0.0
2017-Oct-17 06:28N 29°37' W 095°00'0 0.0
2017-Oct-17 05:58N 29°37' W 095°00'0 0.0
2017-Oct-17 05:28N 29°37' W 095°00'0 0.0
2017-Oct-17 04:58N 29°37' W 095°00'0 0.0
2017-Oct-17 04:29N 29°37' W 095°00'2 4.2
2017-Oct-17 04:00N 29°37' W 094°58'2 4.8
2017-Oct-17 03:30N 29°37' W 095°01'0 0.5
2017-Oct-17 03:00N 29°37' W 095°00'0 0.0
2017-Oct-17 02:30N 29°37' W 095°00'1 2.5
2017-Oct-17 02:00N 29°37' W 094°59'4 5.4
2017-Oct-17 01:14N 29°41' W 094°60'0 0.2
2017-Oct-17 00:58N 29°41' W 094°60'2 3.2
2017-Oct-17 00:26N 29°42' W 095°01'0 0.0
2017-Oct-16 23:49N 29°42' W 095°01'5 1.5
2017-Oct-16 20:26N 29°46' W 095°05'4 8.2
2017-Oct-16 19:56N 29°44' W 095°01'0 0.2
2017-Oct-16 19:08N 29°44' W 095°01'1 2.5
2017-Oct-16 18:49N 29°43' W 095°01'1 2.0
2017-Oct-16 18:30N 29°42' W 095°01'0 0.0
2017-Oct-16 17:43N 29°42' W 095°01'0 1.1
2017-Oct-16 17:31N 29°42' W 095°01'2 3.2
2017-Oct-16 17:00N 29°41' W 094°60'0 0.3
2017-Oct-16 16:30N 29°41' W 094°60'2 4.8
2017-Oct-16 16:00N 29°39' W 094°58'2 4.4
2017-Oct-16 15:28N 29°37' W 094°59'1 1.9
2017-Oct-16 15:00N 29°37' W 095°00'2 4.4
2017-Oct-16 14:30N 29°37' W 094°58'2 2.4
2017-Oct-16 13:30N 29°37' W 095°00'1 2.9
2017-Oct-16 13:00N 29°37' W 094°59'4 7.5
2017-Oct-16 12:30N 29°41' W 094°59'1 1.3
2017-Oct-16 12:00N 29°41' W 094°59'1 2.0
2017-Oct-16 11:30N 29°42' W 094°60'6 6.0
2017-Oct-16 10:29N 29°45' W 095°06'4 8.0
2017-Oct-16 09:58N 29°44' W 095°01'4 9.5
2017-Oct-16 09:30N 29°40' W 094°58'3 6.7
2017-Oct-16 09:00N 29°37' W 094°60'1 1.2
2017-Oct-16 08:30N 29°37' W 095°01'0 0.3
2017-Oct-16 08:00N 29°37' W 095°00'3 5.2
2017-Oct-16 07:31N 29°37' W 094°57'3 5.4
2017-Oct-16 07:00N 29°40' W 094°58'1 2.5
2017-Oct-16 06:30N 29°41' W 094°59'1 2.0
2017-Oct-16 06:00N 29°41' W 095°00'1 1.0
2017-Oct-16 05:29N 29°41' W 094°59'0 0.0
2017-Oct-16 01:03N 29°41' W 094°59'0 0.0
2017-Oct-16 00:53N 29°41' W 094°59'0 1.2
2017-Oct-16 00:30N 29°41' W 094°60'0 0.7
2017-Oct-16 00:00N 29°41' W 095°00'1 2.1
2017-Oct-15 23:29N 29°41' W 094°59'0 0.0
2017-Oct-15 22:59N 29°41' W 094°59'0 0.0
2017-Oct-15 22:29N 29°41' W 094°59'0 0.0
2017-Oct-15 21:59N 29°41' W 094°59'0 0.0
2017-Oct-15 21:22N 29°41' W 094°59'4 7.3
2017-Oct-15 20:48N 29°44' W 095°03'0 1.5
2017-Oct-15 20:30N 29°44' W 095°03'2 3.0
2017-Oct-15 19:48N 29°43' W 095°01'3 9.0
2017-Oct-15 19:30N 29°41' W 094°59'1 2.7
2017-Oct-15 19:00N 29°41' W 095°00'0 0.1
2017-Oct-15 18:29N 29°41' W 095°01'1 0.6
2017-Oct-15 17:26N 29°41' W 094°60'0 0.0
2017-Oct-15 16:29N 29°41' W 094°60'0 0.0
2017-Oct-15 15:50N 29°41' W 094°60'0 0.0
2017-Oct-15 15:14N 29°41' W 094°60'0 0.0
2017-Oct-15 14:56N 29°41' W 094°60'0 0.0
2017-Oct-15 13:56N 29°41' W 094°60'0 0.0
2017-Oct-15 13:20N 29°41' W 094°60'0 0.0
2017-Oct-15 12:50N 29°41' W 094°60'0 0.0
2017-Oct-15 11:53N 29°41' W 094°60'0 0.0
2017-Oct-15 11:23N 29°41' W 094°60'0 0.0
2017-Oct-15 10:44N 29°41' W 094°60'0 0.5
2017-Oct-15 10:27N 29°41' W 094°60'0 0.3
2017-Oct-15 10:00N 29°41' W 094°60'2 3.9
2017-Oct-15 09:30N 29°39' W 094°58'2 3.2
2017-Oct-15 08:56N 29°41' W 094°59'1 2.2
2017-Oct-15 08:30N 29°41' W 095°01'0 0.0
2017-Oct-15 08:00N 29°41' W 095°01'1 1.2
2017-Oct-15 07:30N 29°41' W 094°60'2 3.2
2017-Oct-15 07:00N 29°40' W 094°59'2 0.5
2017-Oct-15 03:56N 29°41' W 094°60'0 0.9
2017-Oct-15 03:24N 29°41' W 095°00'1 2.6
2017-Oct-15 03:00N 29°41' W 094°59'1 1.9
2017-Oct-15 02:30N 29°40' W 094°59'2 4.1
2017-Oct-15 02:00N 29°42' W 094°60'6 0.8
2017-Oct-14 18:20N 29°45' W 095°06'2 6.0
2017-Oct-14 17:57N 29°44' W 095°03'3 2.3
2017-Oct-14 16:39N 29°42' W 095°01'1 0.4
2017-Oct-14 15:10N 29°43' W 095°01'1 0.4
2017-Oct-14 13:34N 29°42' W 095°01'1 8.2
2017-Oct-14 13:30N 29°42' W 095°01'1 2.7
2017-Oct-14 13:00N 29°41' W 094°60'0 0.1
2017-Oct-14 12:30N 29°41' W 094°60'3 6.7
2017-Oct-14 12:00N 29°44' W 095°02'1 2.4
2017-Oct-14 11:30N 29°44' W 095°03'2 4.7
2017-Oct-14 11:00N 29°42' W 095°01'0 0.2
2017-Oct-14 10:30N 29°42' W 095°01'1 0.3
2017-Oct-14 08:08N 29°43' W 095°01'110.0
2017-Oct-14 08:01N 29°42' W 095°00'1 2.2
2017-Oct-14 07:30N 29°41' W 094°60'0 0.0
2017-Oct-14 07:00N 29°41' W 094°60'0 0.0
2017-Oct-14 06:27N 29°41' W 094°60'0 0.0
2017-Oct-14 05:57N 29°41' W 094°60'0 0.0
2017-Oct-14 05:30N 29°41' W 094°60'0 0.0
2017-Oct-14 04:48N 29°41' W 094°60'0 0.0
2017-Oct-14 04:27N 29°41' W 094°60'1 1.3
2017-Oct-14 04:00N 29°41' W 095°00'0 0.2
2017-Oct-14 03:30N 29°41' W 095°01'1 1.6
2017-Oct-14 03:00N 29°41' W 094°60'1 1.3
2017-Oct-14 02:31N 29°41' W 095°00'0 0.3
2017-Oct-14 02:00N 29°41' W 095°01'0 0.1
2017-Oct-14 01:20N 29°41' W 095°00'1 4.0
2017-Oct-14 01:00N 29°41' W 094°59'1 1.0
2017-Oct-14 00:12N 29°41' W 094°60'0 0.0
2017-Oct-13 23:12N 29°41' W 094°60'1 4.1
2017-Oct-13 23:00N 29°41' W 094°59'4 7.7
2017-Oct-13 22:28N 29°37' W 094°59'2 3.7
2017-Oct-13 21:52N 29°37' W 095°01'1 1.8
2017-Oct-13 21:30N 29°37' W 095°01'0 0.9
2017-Oct-13 21:00N 29°37' W 095°00'3 5.3
2017-Oct-13 20:30N 29°38' W 094°58'3 4.9
2017-Oct-13 19:57N 29°41' W 094°59'0 0.0
2017-Oct-13 19:27N 29°41' W 094°59'0 0.0
2017-Oct-13 18:59N 29°41' W 094°59'0 0.0
2017-Oct-13 18:21N 29°41' W 094°59'0 0.0
2017-Oct-13 18:00N 29°41' W 094°59'0 0.0
2017-Oct-13 17:27N 29°41' W 094°59'0 0.0
2017-Oct-13 17:00N 29°41' W 094°59'0 0.0
2017-Oct-13 16:27N 29°41' W 094°59'0 0.0
2017-Oct-13 16:00N 29°41' W 094°59'2 3.1
2017-Oct-13 15:23N 29°42' W 095°01'5 2.1
2017-Oct-13 12:58N 29°45' W 095°06'4 7.3
2017-Oct-13 12:25N 29°44' W 095°01'3 7.5
2017-Oct-13 12:00N 29°41' W 094°59'1 1.0
2017-Oct-13 11:29N 29°41' W 094°60'0 0.0
2017-Oct-13 10:50N 29°41' W 094°60'0 0.0
2017-Oct-13 10:31N 29°41' W 094°60'0 0.1
2017-Oct-13 09:57N 29°41' W 094°60'1 1.8
2017-Oct-13 09:31N 29°41' W 094°59'2 4.5
2017-Oct-13 08:58N 29°42' W 095°01'0 0.4
2017-Oct-13 08:29N 29°42' W 095°01'0 0.0
2017-Oct-13 07:56N 29°42' W 095°01'0 0.0
2017-Oct-13 07:29N 29°42' W 095°01'0 0.0
2017-Oct-13 06:59N 29°42' W 095°01'0 0.0
2017-Oct-13 06:29N 29°42' W 095°01'0 0.0
2017-Oct-13 05:59N 29°42' W 095°01'0 0.0
2017-Oct-13 05:29N 29°42' W 095°01'0 0.0
2017-Oct-13 04:59N 29°42' W 095°01'0 0.0
2017-Oct-13 03:56N 29°42' W 095°01'0 0.0
2017-Oct-13 03:26N 29°42' W 095°01'0 0.0
2017-Oct-13 02:59N 29°42' W 095°01'2 4.9
2017-Oct-13 02:29N 29°44' W 095°03'0 0.0
2017-Oct-13 02:00N 29°44' W 095°03'3 0.4
2017-Oct-12 18:45N 29°45' W 095°06'1 4.7
2017-Oct-12 18:26N 29°45' W 095°04'3 5.9
2017-Oct-12 17:59N 29°44' W 095°01'3 6.0
2017-Oct-12 17:30N 29°41' W 094°59'0 0.2
2017-Oct-12 17:00N 29°41' W 094°59'2 1.4
2017-Oct-12 15:34N 29°42' W 095°01'0 0.0
2017-Oct-12 15:22N 29°42' W 095°01'0 0.0
2017-Oct-12 13:22N 29°42' W 095°01'0 0.0
2017-Oct-12 13:00N 29°42' W 095°01'510.1
2017-Oct-12 12:30N 29°38' W 094°58'2 4.6
2017-Oct-12 12:00N 29°37' W 094°60'0 0.4
2017-Oct-12 11:30N 29°37' W 095°00'0 0.3
2017-Oct-12 11:00N 29°37' W 095°00'4 6.6
2017-Oct-12 10:24N 29°41' W 094°59'1 1.9
2017-Oct-12 09:56N 29°41' W 094°60'0 0.0
2017-Oct-12 07:53N 29°41' W 094°60'0 0.0
2017-Oct-12 03:41N 29°41' W 094°60'0 0.0
2017-Oct-12 03:22N 29°41' W 094°60'1 1.4
2017-Oct-12 03:00N 29°41' W 094°59'1 1.7
2017-Oct-12 02:26N 29°41' W 095°00'2 4.0
2017-Oct-12 02:00N 29°40' W 094°58'3 6.3
2017-Oct-12 01:28N 29°37' W 094°60'1 2.1
2017-Oct-12 00:58N 29°37' W 095°01'0 0.0
2017-Oct-12 00:28N 29°37' W 095°01'0 0.0
2017-Oct-11 23:58N 29°37' W 095°01'0 0.0
2017-Oct-11 23:28N 29°37' W 095°01'0 0.0
2017-Oct-11 22:58N 29°37' W 095°01'0 0.9
2017-Oct-11 22:30N 29°37' W 095°01'1 2.0
2017-Oct-11 22:01N 29°37' W 095°00'1 2.0
2017-Oct-11 21:30N 29°37' W 095°02'0 0.1
2017-Oct-11 20:58N 29°37' W 095°02'0 0.0
2017-Oct-11 20:28N 29°37' W 095°02'0 0.0
2017-Oct-11 19:55N 29°37' W 095°02'0 0.0
2017-Oct-11 19:28N 29°37' W 095°02'0 0.0
2017-Oct-11 18:58N 29°37' W 095°02'0 0.0
2017-Oct-11 18:28N 29°37' W 095°02'0 0.0
2017-Oct-11 17:49N 29°37' W 095°02'0 0.0
2017-Oct-11 17:28N 29°37' W 095°02'0 0.0
2017-Oct-11 16:55N 29°37' W 095°02'5 0.3
2017-Oct-11 00:00N 29°41' W 094°59'5 8.8
2017-Oct-10 23:29N 29°36' W 094°57'2 5.3
2017-Oct-10 23:00N 29°37' W 095°00'1 1.8
2017-Oct-10 22:30N 29°37' W 095°01'0 0.9
2017-Oct-10 22:00N 29°37' W 095°02'0 0.0
2017-Oct-10 21:30N 29°37' W 095°02'0 0.0
2017-Oct-10 21:00N 29°37' W 095°02'0 0.0
2017-Oct-10 20:30N 29°37' W 095°02'0 0.0
2017-Oct-10 20:00N 29°37' W 095°02'0 0.0
2017-Oct-10 19:30N 29°37' W 095°02'0 0.5
2017-Oct-10 19:00N 29°37' W 095°01'0 0.1
2017-Oct-10 18:30N 29°37' W 095°01'1 2.4
2017-Oct-10 18:01N 29°37' W 094°60'0 0.9
2017-Oct-10 17:30N 29°37' W 094°59'4 7.0
2017-Oct-10 17:00N 29°40' W 094°59'3 4.5
2017-Oct-10 16:22N 29°42' W 095°01'0 0.0
2017-Oct-10 15:58N 29°42' W 095°01'0 0.0
2017-Oct-10 15:28N 29°42' W 095°01'0 0.0
2017-Oct-10 14:58N 29°42' W 095°01'0 0.0
2017-Oct-10 13:49N 29°42' W 095°01'0 0.0
2017-Oct-10 13:28N 29°42' W 095°01'0 0.0
2017-Oct-10 12:58N 29°42' W 095°01'2 3.8
2017-Oct-10 12:30N 29°42' W 094°59'1 0.4
2017-Oct-10 11:04N 29°41' W 094°60'0 0.0
2017-Oct-10 10:49N 29°41' W 094°60'0 0.0
2017-Oct-10 10:22N 29°41' W 094°60'0 0.0
2017-Oct-10 09:49N 29°41' W 094°60'0 1.3
2017-Oct-10 09:31N 29°41' W 094°59'1 1.0
2017-Oct-10 08:43N 29°41' W 095°00'0 1.4
2017-Oct-10 08:29N 29°41' W 094°60'0 0.0
2017-Oct-10 08:00N 29°41' W 094°60'0 0.0
2017-Oct-10 07:30N 29°41' W 094°60'0 0.0
2017-Oct-10 07:00N 29°41' W 094°60'0 0.0
2017-Oct-10 06:30N 29°41' W 094°60'0 0.0
2017-Oct-10 05:21N 29°41' W 094°60'0 0.0
2017-Oct-10 05:00N 29°41' W 094°60'0 0.0
2017-Oct-10 04:30N 29°41' W 094°60'1 1.1
2017-Oct-10 03:56N 29°41' W 095°00'1 3.2
2017-Oct-10 03:30N 29°42' W 095°01'0 0.5
2017-Oct-10 02:59N 29°42' W 095°01'0 0.0
2017-Oct-10 02:29N 29°42' W 095°01'0 0.0
2017-Oct-10 01:59N 29°42' W 095°01'0 0.0
2017-Oct-10 01:29N 29°42' W 095°01'0 0.0
2017-Oct-10 00:50N 29°42' W 095°01'0 0.0
2017-Oct-10 00:29N 29°42' W 095°01'0 0.0
2017-Oct-09 23:59N 29°42' W 095°01'0 0.0
2017-Oct-09 23:29N 29°42' W 095°01'0 0.0
2017-Oct-09 22:59N 29°42' W 095°01'1 2.8
2017-Oct-09 22:27N 29°44' W 095°01'0 0.0
2017-Oct-09 21:58N 29°44' W 095°01'0 0.3
2017-Oct-09 21:29N 29°44' W 095°01'1 2.9
2017-Oct-09 20:59N 29°42' W 095°01'0 0.3
2017-Oct-09 20:26N 29°42' W 095°01'0 0.0
2017-Oct-09 19:47N 29°42' W 095°01'0 0.0
2017-Oct-09 19:26N 29°42' W 095°01'0 0.0
2017-Oct-09 18:59N 29°42' W 095°01'0 0.0
2017-Oct-09 18:29N 29°42' W 095°01'0 0.0
2017-Oct-09 17:59N 29°42' W 095°01'0 0.0
2017-Oct-09 17:29N 29°42' W 095°01'0 0.0
2017-Oct-09 16:59N 29°42' W 095°01'2 4.0
2017-Oct-09 16:31N 29°41' W 094°59'0 0.7
2017-Oct-09 16:00N 29°41' W 094°59'3 5.5
2017-Oct-09 15:31N 29°39' W 094°58'2 4.9
2017-Oct-09 15:00N 29°37' W 095°00'0 0.5
2017-Oct-09 14:18N 29°37' W 095°00'0 0.0
2017-Oct-09 14:00N 29°37' W 095°00'0 0.0
2017-Oct-09 13:30N 29°37' W 095°00'0 0.0
2017-Oct-09 12:54N 29°37' W 095°00'0 0.0
2017-Oct-09 12:27N 29°37' W 095°00'0 0.2
2017-Oct-09 12:00N 29°37' W 095°00'0 0.5
2017-Oct-09 11:30N 29°37' W 095°01'0 0.2
2017-Oct-09 11:00N 29°37' W 095°01'3 6.9
2017-Oct-09 10:30N 29°36' W 094°57'3 6.6
2017-Oct-09 09:59N 29°37' W 095°01'0 0.0
2017-Oct-09 09:29N 29°37' W 095°01'0 0.0
2017-Oct-09 08:59N 29°37' W 095°01'0 0.0
2017-Oct-09 08:29N 29°37' W 095°01'1 1.4
2017-Oct-09 08:01N 29°37' W 095°01'0 0.1
2017-Oct-09 07:30N 29°37' W 095°01'0 0.0
2017-Oct-09 07:00N 29°37' W 095°01'0 0.6
2017-Oct-09 06:30N 29°37' W 095°02'0 0.3
2017-Oct-09 06:01N 29°37' W 095°01'0 0.2
2017-Oct-09 05:30N 29°37' W 095°01'0 0.7
2017-Oct-09 05:00N 29°36' W 095°01'1 1.1
2017-Oct-09 04:30N 29°37' W 095°02'0 0.0
2017-Oct-09 04:00N 29°37' W 095°02'0 0.0
2017-Oct-09 03:30N 29°37' W 095°02'0 0.0
2017-Oct-09 02:57N 29°37' W 095°02'0 0.0
2017-Oct-09 02:30N 29°37' W 095°02'0 0.0
2017-Oct-09 02:00N 29°37' W 095°02'0 0.0
2017-Oct-09 01:30N 29°37' W 095°02'0 0.0
2017-Oct-09 01:00N 29°37' W 095°02'0 0.6
2017-Oct-09 00:30N 29°37' W 095°01'0 0.7
2017-Oct-09 00:00N 29°37' W 095°01'0 0.0
2017-Oct-08 23:29N 29°37' W 095°01'0 0.0
2017-Oct-08 22:59N 29°37' W 095°01'0 0.0
2017-Oct-08 22:29N 29°37' W 095°01'0 0.0
2017-Oct-08 21:59N 29°37' W 095°01'0 0.0
2017-Oct-08 21:29N 29°37' W 095°01'0 0.0
2017-Oct-08 20:59N 29°37' W 095°01'0 0.0
2017-Oct-08 20:29N 29°37' W 095°01'0 0.0
2017-Oct-08 19:59N 29°37' W 095°01'0 0.0
2017-Oct-08 19:29N 29°37' W 095°01'0 0.0
2017-Oct-08 18:59N 29°37' W 095°01'0 0.0
2017-Oct-08 18:29N 29°37' W 095°01'0 0.0
2017-Oct-08 17:59N 29°37' W 095°01'0 0.0
2017-Oct-08 17:29N 29°37' W 095°01'0 0.0
2017-Oct-08 16:59N 29°37' W 095°01'0 0.0
2017-Oct-08 16:29N 29°37' W 095°01'0 0.0
2017-Oct-08 15:59N 29°37' W 095°01'0 0.0
2017-Oct-08 15:29N 29°37' W 095°01'0 0.0
2017-Oct-08 14:59N 29°37' W 095°01'0 0.7
2017-Oct-08 14:15N 29°37' W 095°01'0 0.0
2017-Oct-08 13:57N 29°37' W 095°01'0 0.0
2017-Oct-08 13:27N 29°37' W 095°01'0 0.0
2017-Oct-08 12:57N 29°37' W 095°01'0 0.0
2017-Oct-08 12:27N 29°37' W 095°01'1 2.2
2017-Oct-08 12:00N 29°37' W 094°59'0 0.7
2017-Oct-08 11:31N 29°37' W 094°60'0 0.7
2017-Oct-08 11:00N 29°37' W 095°00'0 0.6
2017-Oct-08 10:29N 29°37' W 095°01'0 0.0
2017-Oct-08 09:59N 29°37' W 095°01'0 0.0
2017-Oct-08 09:29N 29°37' W 095°01'0 0.0
2017-Oct-08 08:59N 29°37' W 095°01'0 0.0
2017-Oct-08 08:29N 29°37' W 095°01'0 0.0
2017-Oct-08 07:59N 29°37' W 095°01'0 0.0
2017-Oct-08 07:29N 29°37' W 095°01'0 0.0
2017-Oct-08 06:59N 29°37' W 095°01'0 0.0
2017-Oct-08 06:29N 29°37' W 095°01'0 0.0
2017-Oct-08 05:59N 29°37' W 095°01'0 0.0
2017-Oct-08 05:29N 29°37' W 095°01'0 0.0
2017-Oct-08 04:59N 29°37' W 095°01'0 0.0
2017-Oct-08 04:29N 29°37' W 095°01'0 0.0
2017-Oct-08 04:00N 29°37' W 095°01'4 8.0
2017-Oct-08 03:30N 29°35' W 094°56'510.6
2017-Oct-08 03:00N 29°31' W 094°53'  

Dump ship's entire track history